9VA1 weather

Holly Point Airport
Mathews, Virginia, United States

Public forecast

Using degrees Fahrenheit for public forecast. Weather courtesy of forecast.io.

METAR (pilot weather report)

Closest report is Newport News Williamsburg International Airport, 17.2 nm (31.8 km) SSW. Retrieved 2019/09/19 04:54 UTC (48 minutes ago):

KPHF 190454Z AUTO 04005KT 10SM FEW039 18/11 A3023 RMK AO2 SLP234 T01780111 402390161

TAF (pilot weather forecast)

Forecast is more than 12 hours old.

Closest forecast is Newport News Williamsburg International Airport, 17.2 nm (31.8 km) SSW. Retrieved 2019/09/18 00:30 UTC (1 day ago):

TAF KPHF 182328Z 1900/1924 05010KT P6SM SCT050 FM190600 04012KT P6SM SKC FM191400 04012G19KT P6SM SCT050 FM192100 05009KT P6SM FEW050